Historyczne dane pomiarowe

Dodano dane terminowe – wersja testowa.

Dane z okresu 1951-2019

Wersja bazy: 1.34 [2019-03-16, lista zmian], aktualizacja planowana na 2019-04-15

Dane meteo z obszaru Polski uzyskane na podstawie danych udostępnionych przez Instytut Meteorologii i Gospodarki Wodnej – Państwowy Instytut Badawczy.

 

Wybierz Datę:    

       

TemperaturaWilgotnośćWiatrCiśnienieOpadyŚniegCzas trwania zjawisk
 Stacja t tx tn tng RH VA  wxwx mslp ppp RRR   cm mm wxwxwxwxwxwxwx
1956-02-15 -4.6 -2.6-15.6-19.6 81.3- 8.0 3.3---- 0.1-- 33---------
1956-02-14 -9.4 -2.8-15.7-11.2 78.8- 2.7 2.7---- 0.2-- 34---------
1956-02-13 -8.8 -6.6-16.8-13.6 88.0- 8.0 5.0---- 7.6-- 29---------
1956-02-12 -8.4 -6.6-13.5-11.6 85.8- 7.3 2.3---- 1.5-- 27---------
1956-02-11-12.5-10.4-16.9-13.6 78.3- 6.3 3.3---- 0.7-- 27---------
1956-02-10-11.7 -7.6-14.0-12.2 86.8- 8.0 5.0---- 2.3-- 26---------
1956-02-09 -9.0 -6.9-18.3-18.2 82.0- 8.0 10.7---- 0.4-- 26---------
1956-02-08-15.8 -7.6-17.4-10.1 83.5- 8.0 8.7---- 1.8-- 24---------
1956-02-07 -7.3 -4.2-10.2-10.5 86.5- 7.0 5.7---- 5.3-- 20---------
1956-02-06 -2.5 0.0 -5.0 -4.7 79.0- 7.7 5.7---- 1.2-- 18---------
1956-02-05 -0.7 0.1 -3.7 -5.0 82.3- 8.0 6.0---- 1.7-- 17---------
1956-02-04 -3.1 -1.0 -7.4-10.2 79.3- 5.0 2.7---- 1.2-- 15---------
1956-02-03 -2.7 -1.1 -7.9-11.1 87.3- 7.7 1.7---- 3.3-- 13---------
1956-02-02 -4.9 -1.2-12.1-13.4 81.3- 8.0 4.7---- 0.4-- 13---------
1956-02-01-13.9-11.2-20.0-18.2 86.5- 7.0 3.3---- 1.3-- 13---------
1956-01-31-17.9-13.4-19.0-15.1 80.3- 8.0 5.7---- 3.4-- 10---------
1956-01-30-12.5 -8.5-14.2-12.6 83.3- 7.7 6.7---- 1.3-- 7---------
1956-01-29 -5.6 0.1 -9.3 -5.0 72.3- 6.7 6.7---- 2.5-- 3---------
1956-01-28 -0.4 0.3 -2.6 -3.7 73.8- 6.3 6.7---- 2.6-- 1---------
1956-01-27 -1.7 -0.6 -3.9 -7.1 75.3- 4.7 1.3---- 0.6-- 1---------
1956-01-26 -0.3 0.6 -1.9 -3.3 80.0- 6.0 4.3---- 0.0-- 1---------
1956-01-25 0.5 2.2 -0.3 1.3 79.3- 7.0 3.7---- 0.0-- 1---------
1956-01-24 1.4 8.1 0.1 -0.5 98.0- 8.0 4.0---- 6.6-- 1---------
1956-01-23 1.7 2.9 0.5 -0.1 75.8- 5.3 7.0---- 7.5------------
1956-01-22 2.4 5.3 0.1 0.9 84.5- 6.7 9.0---- 1.6------------
1956-01-21 4.2 5.8 1.1 0.6 75.0- 4.7 13.3---- 0.1------------
1956-01-20 2.3 3.6 0.3 -0.5 87.5- 4.3 8.7---- 1.3-- 1---------
1956-01-19 1.5 3.8 -0.2 -0.9 83.3- 6.3 12.0---- 0.9-- 1---------
1956-01-18 3.8 4.3 2.7 1.3 84.3- 8.0 8.0---- 3.2------------
1956-01-17 3.5 4.5 1.4 0.0 79.3- 5.3 12.7---- 2.8------------
1956-01-16 2.4 4.4 1.1 1.7 91.8- 6.7 8.7---- 2.3------------
1956-01-15 2.5 3.6 -0.6 -1.3 95.8- 5.3 5.0---- 2.1------------
1956-01-14 3.4 4.9 1.3 0.3 88.3- 7.0 8.3---- 0.0------------
1956-01-13 4.7 5.6 2.4 1.7 80.5- 7.7 10.7---- 1.2------------
1956-01-12 2.7 3.5 1.6 0.3 97.3- 7.7 4.0---- 1.0------------
1956-01-11 1.9 2.5 -0.9 -1.1 90.3- 8.0 4.3---- 0.0------------
1956-01-10 -0.6 -0.1 -2.8 -3.4 86.3- 7.7 6.3---- 0.0------------
1956-01-09 -1.4 -0.6 -4.7 -4.0 76.8- 8.0 4.0---- 0.0------------
1956-01-08 -2.9 -1.8 -4.4 -3.0 79.3- 8.0 4.3---- 0.0------------
1956-01-07 -2.0 -0.3 -3.1 -3.5 86.3- 8.0 4.0---- 0.0------------
1956-01-06 0.8 2.4 -1.0 1.1 83.0- 2.7 5.3---- 0.0------------
1956-01-05 2.2 4.4 1.2 2.1 99.5- 8.0 1.3---- 0.1------------
1956-01-04 3.5 4.4 0.1 0.0 97.0- 8.0 4.7---- 0.2------------
1956-01-03 0.7 1.6 0.1 -2.1 81.3- 8.0 6.3---- 0.0------------
1956-01-02 1.0 1.6 -2.0 -5.0 87.8- 7.7 1.7---- 0.5------------
1956-01-01 1.2 2.9 -0.3 -0.2 86.3- 5.0 4.7---- 0.3------------
1955-12-31 2.8 4.3 2.1 -0.4 88.5- 6.0 5.3---- 1.0------------
1955-12-30 3.6 5.2 1.6 2.6 85.0- 6.0 5.3---- 0.0------------
1955-12-29 5.6 7.6 4.0 3.3 83.5- 6.0 8.0---- 0.3------------
1955-12-28 3.9 4.7 2.5 0.1 97.8- 7.0 7.0---- 3.6------------
1955-12-27 4.1 5.6 2.0 2.3 96.5- 8.0 6.0---- 4.4------------
1955-12-26 3.1 4.5 2.4 1.1 96.5- 8.0 3.7---- 0.8------------
1955-12-25 4.4 4.6 3.0 0.3 91.3- 7.7 5.7---- 0.2------------
1955-12-24 1.9 3.7 -2.5 -4.2 93.3- 7.7 5.3---- 0.3-- 6---------
1955-12-23 -1.1 0.4 -4.2 -1.3 82.8- 4.0 5.7---- 1.8-- 4---------
1955-12-22 0.9 2.3 -1.9 -2.1 94.3- 7.3 8.0---- 3.2-- 3---------
1955-12-21 -0.8 0.4 -5.1-12.1 83.0- 7.7 4.7---- 0.2-- 3---------
1955-12-20 -1.3 -0.2 -3.3 -6.7 83.3- 2.3 4.7---- 0.0-- 4---------
1955-12-19 -1.4 -0.2 -4.5 -6.5 79.5- 6.3 7.7---- 1.0-- 3---------
1955-12-18 -1.4 3.8 -2.9 0.1 82.3- 3.0 6.7---- 1.1-- 2---------
388.6 ms

 

Źródłem pochodzenia danych jest Instytut Meteorologii i Gospodarki Wodnej – Państwowy Instytut Badawczy. Dane Instytutu Meteorologii i Gospodarki Wodnej – Państwowego Instytutu Badawczego zostały przetworzone.

Dane źródłowe można odnaleźć na stronie https://dane.imgw.pl